Time;durP1;ratioP1;P1;durP2;ratioP2;P2;SDS_P1;SDS_P2;PMS_P1;PMS_P2;Temp;Humidity;BMP_temperature;BMP_pressure;BME280_temperature;BME280_humidity;BME280_pressure;Samples;Min_cycle;Max_cycle;Signal;HPM_P1;HPM_P2
2022/10/15 00:02:26;;;;;;;6.38;2.15;;;;;;;12.37;100.00;95866.19;5033242;28;20042;-77
2022/10/15 00:04:53;;;;;;;5.13;2.40;;;;;;;12.31;100.00;95862.09;5034477;28;20152;-78
2022/10/15 00:07:19;;;;;;;3.17;2.00;;;;;;;12.30;100.00;95865.97;5035665;28;20049;-77
2022/10/15 00:09:46;;;;;;;5.03;2.00;;;;;;;12.32;100.00;95869.13;5038398;28;20053;-78
2022/10/15 00:12:12;;;;;;;5.00;2.40;;;;;;;12.31;100.00;95857.41;5031748;28;20488;-77
2022/10/15 00:14:39;;;;;;;4.38;2.30;;;;;;;12.28;100.00;95858.13;5037402;28;20045;-78
2022/10/15 00:17:07;;;;;;;4.90;2.15;;;;;;;12.21;100.00;95857.88;5037783;28;20080;-77
2022/10/15 00:19:33;;;;;;;5.10;2.33;;;;;;;12.22;100.00;95864.94;5036438;28;20415;-78
2022/10/15 00:22:00;;;;;;;4.25;2.30;;;;;;;12.27;100.00;95851.06;5035069;28;20715;-77
2022/10/15 00:24:27;;;;;;;3.22;2.13;;;;;;;12.15;100.00;95849.13;5034281;28;20047;-78
2022/10/15 00:26:54;;;;;;;3.88;2.38;;;;;;;12.12;100.00;95855.28;5030779;28;20041;-77
2022/10/15 00:29:20;;;;;;;4.80;2.47;;;;;;;12.19;100.00;95844.56;5033805;28;20056;-78
2022/10/15 00:31:47;;;;;;;4.93;2.00;;;;;;;12.12;100.00;95844.34;5034560;28;20104;-79
2022/10/15 00:34:15;;;;;;;4.65;2.20;;;;;;;12.21;100.00;95847.75;5032860;28;20045;-78
2022/10/15 00:36:41;;;;;;;5.63;2.08;;;;;;;12.17;100.00;95846.84;5035125;28;20045;-79
2022/10/15 00:39:08;;;;;;;3.95;2.30;;;;;;;12.13;100.00;95845.16;5034397;28;20482;-79
2022/10/15 00:41:37;;;;;;;3.30;2.28;;;;;;;12.15;100.00;95842.84;5033927;28;20045;-79
2022/10/15 00:44:42;;;;;;;2.83;1.92;;;;;;;12.22;100.00;95832.97;5034902;28;20045;-82
2022/10/15 00:47:16;;;;;;;5.25;2.38;;;;;;;12.16;100.00;95828.91;5034839;28;20073;-79
2022/10/15 00:49:48;;;;;;;3.85;2.40;;;;;;;12.09;100.00;95825.13;5035606;28;20509;-78
2022/10/15 00:52:18;;;;;;;2.63;2.10;;;;;;;12.19;100.00;95824.66;5033447;28;20052;-79
2022/10/15 00:54:48;;;;;;;5.50;2.22;;;;;;;12.27;100.00;95819.09;5034581;28;20045;-78
2022/10/15 00:57:15;;;;;;;3.17;2.20;;;;;;;12.24;100.00;95814.31;5035004;28;20076;-78
2022/10/15 00:59:47;;;;;;;5.22;2.22;;;;;;;12.28;100.00;95809.78;5035042;28;20041;-78
2022/10/15 01:02:13;;;;;;;3.80;2.83;;;;;;;12.33;100.00;95805.22;5034614;28;20053;-78
2022/10/15 01:04:42;;;;;;;4.10;2.38;;;;;;;12.33;100.00;95797.03;5034182;28;20041;-79
2022/10/15 01:07:10;;;;;;;8.35;2.55;;;;;;;12.34;100.00;95791.22;5033665;28;20042;-81
2022/10/15 01:09:36;;;;;;;3.45;2.42;;;;;;;12.39;100.00;95782.81;5028432;28;21350;-79
2022/10/15 01:12:07;;;;;;;4.97;2.60;;;;;;;12.32;100.00;95788.06;5033791;28;20049;-78
2022/10/15 01:14:44;;;;;;;6.05;2.55;;;;;;;12.31;100.00;95785.66;5013410;28;20053;-79
2022/10/15 01:17:20;;;;;;;5.53;2.50;;;;;;;12.24;100.00;95787.03;5020271;28;20050;-79
2022/10/15 01:20:19;;;;;;;4.55;2.63;;;;;;;12.30;100.00;95779.41;5033239;28;20055;-80
2022/10/15 01:23:02;;;;;;;3.70;2.30;;;;;;;12.35;100.00;95772.91;5033948;28;20048;-80
2022/10/15 01:25:41;;;;;;;3.95;2.70;;;;;;;12.28;100.00;95768.03;5035061;28;20105;-78
2022/10/15 01:28:20;;;;;;;7.00;2.95;;;;;;;12.28;100.00;95757.91;5036885;28;20046;-78
2022/10/15 01:30:54;;;;;;;5.28;2.40;;;;;;;12.10;100.00;95762.00;5037236;28;20545;-81
2022/10/15 01:33:38;;;;;;;4.07;2.30;;;;;;;12.14;100.00;95759.41;5037996;28;20512;-81
2022/10/15 01:36:13;;;;;;;3.65;2.30;;;;;;;12.23;100.00;95758.13;5035166;28;20045;-79
2022/10/15 01:38:51;;;;;;;4.75;2.30;;;;;;;12.17;100.00;95759.50;5035923;28;20048;-81
2022/10/15 01:41:26;;;;;;;3.35;2.45;;;;;;;12.17;100.00;95748.59;5039628;28;20124;-79
2022/10/15 01:43:59;;;;;;;5.40;2.40;;;;;;;12.17;100.00;95753.25;5038295;28;20053;-80
2022/10/15 01:46:33;;;;;;;4.05;2.28;;;;;;;12.11;100.00;95749.97;5037029;28;20480;-80
2022/10/15 01:49:04;;;;;;;3.22;2.22;;;;;;;12.17;100.00;95751.31;5024532;28;20054;-79
2022/10/15 01:51:34;;;;;;;3.88;2.10;;;;;;;12.20;100.00;95758.81;5017509;28;20042;-82
2022/10/15 01:54:02;;;;;;;3.75;2.35;;;;;;;11.98;100.00;95738.25;5022340;28;20515;-80
2022/10/15 01:56:31;;;;;;;2.92;2.20;;;;;;;12.05;100.00;95745.84;5016561;28;20512;-80
2022/10/15 01:58:59;;;;;;;6.60;2.30;;;;;;;11.98;100.00;95737.47;5025800;28;20044;-79
2022/10/15 02:01:25;;;;;;;4.75;2.30;;;;;;;11.97;100.00;95727.69;5036795;28;20041;-80
2022/10/15 02:03:54;;;;;;;5.57;2.53;;;;;;;11.98;100.00;95729.28;5038507;28;20068;-80
2022/10/15 02:06:25;;;;;;;3.65;1.92;;;;;;;12.00;100.00;95726.97;5036230;28;20071;-80
2022/10/15 02:09:15;;;;;;;3.80;2.00;;;;;;;11.92;100.00;95714.28;5039720;28;20047;-80
2022/10/15 02:11:54;;;;;;;2.70;1.90;;;;;;;11.96;100.00;95734.28;5034540;28;20547;-81
2022/10/15 02:14:29;;;;;;;8.07;2.17;;;;;;;11.86;100.00;95729.28;5033227;28;20041;-79
2022/10/15 02:17:04;;;;;;;5.28;2.20;;;;;;;11.84;100.00;95729.59;5034574;28;20522;-78
2022/10/15 02:19:42;;;;;;;4.65;2.00;;;;;;;11.96;100.00;95731.56;5032972;28;20052;-79
2022/10/15 02:22:13;;;;;;;3.22;1.90;;;;;;;11.96;100.00;95726.09;5034575;28;20045;-80
2022/10/15 02:24:44;;;;;;;5.88;2.00;;;;;;;11.96;100.00;95731.56;5035141;28;20119;-80
2022/10/15 02:27:14;;;;;;;3.63;2.10;;;;;;;11.97;100.00;95722.22;5033547;28;20053;-81
2022/10/15 02:29:42;;;;;;;6.03;1.77;;;;;;;11.94;100.00;95722.91;5037322;28;20046;-81
2022/10/15 02:32:11;;;;;;;3.28;1.77;;;;;;;11.89;100.00;95723.91;5040061;28;20140;-81
2022/10/15 02:34:40;;;;;;;3.00;1.67;;;;;;;11.77;100.00;95719.25;5037849;28;20568;-81
2022/10/15 02:37:07;;;;;;;2.28;1.58;;;;;;;11.80;100.00;95711.50;5034551;28;20128;-79
2022/10/15 02:39:35;;;;;;;4.05;1.60;;;;;;;11.75;100.00;95715.28;5038691;28;20055;-80
2022/10/15 02:42:02;;;;;;;2.30;1.55;;;;;;;11.73;100.00;95706.63;5038317;28;20061;-79
2022/10/15 02:44:28;;;;;;;2.63;1.38;;;;;;;11.82;100.00;95693.69;5037164;28;20044;-78
2022/10/15 02:46:56;;;;;;;3.78;2.15;;;;;;;11.75;100.00;95693.44;5023123;28;20053;-80
2022/10/15 02:49:22;;;;;;;3.47;1.40;;;;;;;11.80;100.00;95695.13;5032357;28;20043;-79
2022/10/15 02:51:50;;;;;;;2.38;1.75;;;;;;;11.86;100.00;95693.81;5037123;28;20049;-80
2022/10/15 02:54:17;;;;;;;3.17;1.70;;;;;;;11.88;100.00;95697.00;5035000;28;20048;-79
2022/10/15 02:56:44;;;;;;;3.90;1.60;;;;;;;11.85;100.00;95692.22;5038195;28;20041;-79
2022/10/15 02:59:10;;;;;;;4.00;2.15;;;;;;;11.86;100.00;95691.09;5035582;28;20048;-79
2022/10/15 03:01:37;;;;;;;4.55;1.55;;;;;;;11.94;100.00;95695.63;5036719;28;20033;-78
2022/10/15 03:04:04;;;;;;;2.83;1.60;;;;;;;11.92;100.00;95687.00;5019394;28;20048;-79
2022/10/15 03:06:30;;;;;;;2.30;1.60;;;;;;;11.99;100.00;95684.47;5038767;28;20045;-79
2022/10/15 03:08:58;;;;;;;3.25;1.80;;;;;;;11.96;100.00;95682.44;5036094;28;20045;-79
2022/10/15 03:11:25;;;;;;;2.55;1.55;;;;;;;11.97;100.00;95684.81;5035907;28;20067;-78
2022/10/15 03:13:52;;;;;;;4.40;1.55;;;;;;;11.94;100.00;95690.16;5039301;28;20049;-78
2022/10/15 03:16:18;;;;;;;3.17;1.60;;;;;;;11.94;100.00;95690.16;5034677;28;20495;-78
2022/10/15 03:18:45;;;;;;;3.40;1.52;;;;;;;11.87;100.00;95689.94;5039040;28;20120;-77
2022/10/15 03:21:11;;;;;;;4.32;1.42;;;;;;;11.73;100.00;95684.81;5036462;28;20046;-78
2022/10/15 03:23:38;;;;;;;3.67;1.45;;;;;;;11.76;100.00;95690.38;5035108;28;20037;-79
2022/10/15 03:26:06;;;;;;;1.75;1.35;;;;;;;11.74;100.00;95689.94;5035883;28;20045;-79
2022/10/15 03:28:33;;;;;;;2.05;1.40;;;;;;;11.80;100.00;95679.59;5036474;28;20128;-78
2022/10/15 03:31:00;;;;;;;5.95;1.60;;;;;;;11.88;100.00;95681.41;5035792;28;20073;-78
2022/10/15 03:33:27;;;;;;;2.55;1.48;;;;;;;11.86;100.00;95682.91;5034845;28;20045;-78
2022/10/15 03:35:54;;;;;;;2.15;1.30;;;;;;;11.87;100.00;95687.22;5036588;28;20054;-79
2022/10/15 03:38:20;;;;;;;2.67;1.40;;;;;;;11.94;100.00;95684.69;5037957;28;20053;-79
2022/10/15 03:40:47;;;;;;;1.40;1.20;;;;;;;11.90;100.00;95683.78;5052497;28;20124;-78
2022/10/15 03:43:15;;;;;;;2.35;1.23;;;;;;;11.91;100.00;95685.41;5050736;28;20045;-79
2022/10/15 03:45:41;;;;;;;2.83;1.23;;;;;;;11.99;100.00;95687.19;5052258;28;20055;-80
2022/10/15 03:48:08;;;;;;;5.18;1.48;;;;;;;11.93;100.00;95683.13;5046613;28;20133;-79
2022/10/15 03:50:34;;;;;;;1.63;1.40;;;;;;;11.92;100.00;95687.00;5035247;28;20048;-79
2022/10/15 03:53:03;;;;;;;2.15;1.40;;;;;;;11.97;100.00;95687.56;5035633;28;20046;-79
2022/10/15 03:55:30;;;;;;;3.88;1.33;;;;;;;11.98;100.00;95674.69;5034945;28;20205;-78
2022/10/15 03:57:57;;;;;;;2.72;1.27;;;;;;;11.99;100.00;95684.47;5035054;28;20427;-79
2022/10/15 04:00:25;;;;;;;3.17;1.48;;;;;;;11.96;100.00;95687.91;5034442;28;20041;-78
2022/10/15 04:02:51;;;;;;;3.42;1.40;;;;;;;11.98;100.00;95682.88;5019632;28;20055;-78
2022/10/15 04:05:18;;;;;;;2.88;1.45;;;;;;;11.99;100.00;95687.19;5033529;28;20057;-78
2022/10/15 04:07:45;;;;;;;2.20;1.20;;;;;;;11.95;100.00;95683.56;5034337;28;20045;-79
2022/10/15 04:10:11;;;;;;;2.75;1.23;;;;;;;11.97;100.00;95678.56;5033862;28;20080;-79
2022/10/15 04:12:38;;;;;;;4.32;1.25;;;;;;;11.95;100.00;95680.84;5034495;28;20042;-79
2022/10/15 04:15:05;;;;;;;3.70;1.40;;;;;;;11.94;100.00;95681.97;5033564;28;20053;-80
2022/10/15 04:17:34;;;;;;;1.58;1.20;;;;;;;11.92;100.00;95681.53;5035177;28;20055;-79
2022/10/15 04:20:00;;;;;;;4.72;1.40;;;;;;;11.93;100.00;95677.66;5034180;28;20053;-78
2022/10/15 04:22:27;;;;;;;3.92;1.45;;;;;;;11.95;100.00;95681.66;5034452;28;20041;-78
2022/10/15 04:24:53;;;;;;;2.60;1.30;;;;;;;12.00;100.00;95684.13;5044129;28;20113;-78
2022/10/15 04:27:20;;;;;;;2.65;1.50;;;;;;;11.98;100.00;95675.50;5039403;28;20049;-79
2022/10/15 04:29:47;;;;;;;3.17;1.38;;;;;;;12.00;100.00;95675.13;5043500;28;20049;-79
2022/10/15 04:32:14;;;;;;;2.00;1.33;;;;;;;12.02;100.00;95679.13;5050435;28;20049;-79
2022/10/15 04:34:42;;;;;;;3.40;1.15;;;;;;;12.12;100.00;95683.31;5049485;28;20037;-79
2022/10/15 04:37:09;;;;;;;2.70;1.25;;;;;;;12.06;100.00;95681.97;5049387;28;20053;-79
2022/10/15 04:39:35;;;;;;;2.08;1.15;;;;;;;12.15;100.00;95674.44;5050853;28;20550;-79
2022/10/15 04:42:02;;;;;;;1.92;1.05;;;;;;;12.14;100.00;95675.59;5040399;28;20049;-78
2022/10/15 04:44:28;;;;;;;4.45;1.20;;;;;;;12.18;100.00;95683.88;5041976;28;20041;-80
2022/10/15 04:46:55;;;;;;;1.75;1.10;;;;;;;12.14;100.00;95672.84;5041573;28;20050;-80
2022/10/15 04:49:21;;;;;;;1.63;1.23;;;;;;;12.15;100.00;95668.19;5041338;28;20057;-80
2022/10/15 04:51:49;;;;;;;2.88;1.13;;;;;;;12.21;100.00;95678.50;5040790;28;20051;-79
2022/10/15 04:54:16;;;;;;;3.67;1.38;;;;;;;12.20;100.00;95674.19;5038681;28;20050;-80
2022/10/15 04:56:43;;;;;;;3.53;1.10;;;;;;;12.20;100.00;95679.66;5038510;28;20117;-79
2022/10/15 04:59:10;;;;;;;4.03;1.10;;;;;;;12.14;100.00;95672.84;5039528;28;20045;-79
2022/10/15 05:01:36;;;;;;;2.20;1.10;;;;;;;12.17;100.00;95661.25;5041435;28;20037;-80
2022/10/15 05:04:03;;;;;;;2.70;0.95;;;;;;;12.20;100.00;95673.41;5038725;28;20422;-79
2022/10/15 05:06:32;;;;;;;3.08;1.00;;;;;;;12.17;100.00;95677.63;5039090;28;20053;-80
2022/10/15 05:09:01;;;;;;;1.35;1.15;;;;;;;12.17;100.00;95676.84;5039511;28;20052;-80
2022/10/15 05:11:28;;;;;;;3.15;0.90;;;;;;;12.18;100.00;95679.22;5037281;28;20516;-80
2022/10/15 05:13:56;;;;;;;2.63;1.05;;;;;;;12.20;100.00;95678.88;5037689;28;20057;-79
2022/10/15 05:16:24;;;;;;;2.28;1.55;;;;;;;12.23;100.00;95676.25;5034759;28;20041;-79
2022/10/15 05:18:52;;;;;;;2.47;1.00;;;;;;;12.26;100.00;95670.09;5038306;28;20045;-78
2022/10/15 05:21:19;;;;;;;4.25;1.10;;;;;;;12.28;100.00;95667.81;5038317;28;20046;-78
2022/10/15 05:23:46;;;;;;;2.75;0.90;;;;;;;12.32;100.00;95667.13;5038021;28;20500;-78
2022/10/15 05:26:16;;;;;;;1.17;0.90;;;;;;;12.35;100.00;95671.91;5038486;28;20088;-78
2022/10/15 05:28:43;;;;;;;3.13;1.20;;;;;;;12.39;100.00;95672.81;5032429;28;20091;-78
2022/10/15 05:31:11;;;;;;;2.08;1.05;;;;;;;12.42;100.00;95667.41;5034639;28;20046;-80
2022/10/15 05:33:38;;;;;;;1.42;0.90;;;;;;;12.46;100.00;95678.47;5034987;28;20044;-83
2022/10/15 05:36:09;;;;;;;6.07;3.53;;;;;;;12.51;100.00;95686.41;5036669;28;20455;-78
2022/10/15 05:38:36;;;;;;;1.38;0.77;;;;;;;12.57;100.00;95695.94;5028568;28;20046;-79
2022/10/15 05:41:03;;;;;;;2.35;0.82;;;;;;;12.61;100.00;95688.66;5026539;28;20405;-79
2022/10/15 05:43:31;;;;;;;1.02;0.75;;;;;;;12.68;100.00;95694.31;5020794;28;20042;-81
2022/10/15 05:45:58;;;;;;;1.50;0.60;;;;;;;12.76;100.00;95690.63;5015536;28;20041;-79
2022/10/15 05:48:24;;;;;;;2.15;1.08;;;;;;;12.79;100.00;95703.63;5031151;28;20045;-79
2022/10/15 05:50:51;;;;;;;1.67;0.73;;;;;;;12.84;100.00;95699.03;5033532;28;20053;-79
2022/10/15 05:53:18;;;;;;;1.20;0.80;;;;;;;12.87;100.00;95703.81;5037678;28;20049;-81
2022/10/15 05:55:45;;;;;;;0.70;0.57;;;;;;;12.93;100.00;95705.13;5048842;28;20132;-82
2022/10/15 05:58:11;;;;;;;2.13;0.60;;;;;;;12.95;100.00;95706.41;5050193;28;20049;-80
2022/10/15 06:00:39;;;;;;;2.95;0.70;;;;;;;12.98;100.00;95705.69;5033796;28;20109;-84
2022/10/15 06:03:06;;;;;;;0.75;0.57;;;;;;;13.00;100.00;95721.75;5036294;28;20052;-81
2022/10/15 06:05:33;;;;;;;1.80;0.70;;;;;;;13.06;100.00;95712.16;5044671;28;20052;-83
2022/10/15 06:11:13;;;;;;;1.55;0.60;;;;;;;13.10;100.00;95723.94;5668500;23;19937;-83
2022/10/15 06:13:41;;;;;;;0.95;0.80;;;;;;;13.15;100.00;95720.16;4960397;28;20066;-81
2022/10/15 06:16:10;;;;;;;0.88;0.70;;;;;;;13.19;100.00;95724.59;4985426;28;20050;-80
2022/10/15 06:18:38;;;;;;;2.70;0.65;;;;;;;13.19;100.00;95727.31;4979650;28;20047;-81
2022/10/15 06:21:06;;;;;;;3.45;0.70;;;;;;;13.23;100.00;95728.25;4980839;28;20066;-81
2022/10/15 06:23:33;;;;;;;1.70;0.80;;;;;;;13.28;100.00;95733.47;4978937;28;20043;-81
2022/10/15 06:26:03;;;;;;;2.13;0.80;;;;;;;13.30;100.00;95739.38;4990326;28;20050;-81
2022/10/15 06:28:29;;;;;;;1.75;0.50;;;;;;;13.35;100.00;95743.00;4982377;28;20042;-81
2022/10/15 06:30:58;;;;;;;1.00;0.60;;;;;;;13.36;100.00;95747.31;4976359;28;20414;-81
2022/10/15 06:33:27;;;;;;;0.60;0.47;;;;;;;13.39;100.00;95752.09;4977191;28;20055;-79
2022/10/15 06:35:53;;;;;;;0.70;0.70;;;;;;;13.42;100.00;95754.16;4976667;28;20134;-79
2022/10/15 06:38:23;;;;;;;2.75;0.82;;;;;;;13.38;100.00;95759.50;4976853;28;20047;-79
2022/10/15 06:40:50;;;;;;;0.82;0.52;;;;;;;13.39;100.00;95763.03;4978526;28;20047;-79
2022/10/15 06:43:16;;;;;;;1.58;0.50;;;;;;;13.39;100.00;95765.78;4970914;28;20053;-79
2022/10/15 06:45:43;;;;;;;0.77;0.63;;;;;;;13.42;100.00;95770.56;4989046;28;20062;-79
2022/10/15 06:48:10;;;;;;;1.70;0.60;;;;;;;13.47;100.00;95776.56;4958236;28;20463;-80
2022/10/15 06:50:39;;;;;;;0.70;0.40;;;;;;;13.47;100.00;95786.72;4959280;28;20114;-81
2022/10/15 06:53:06;;;;;;;0.95;0.50;;;;;;;13.48;100.00;95793.75;4981968;28;20046;-82
2022/10/15 06:55:34;;;;;;;1.33;0.50;;;;;;;13.44;100.00;95793.66;5029032;22;20044;-82
2022/10/15 06:58:03;;;;;;;0.88;0.57;;;;;;;13.48;100.00;95789.09;5040648;28;20054;-82
2022/10/15 07:00:30;;;;;;;2.28;0.80;;;;;;;13.48;100.00;95799.25;5035267;28;20038;-80
2022/10/15 07:02:56;;;;;;;1.08;0.80;;;;;;;13.48;100.00;95810.97;5038610;28;20053;-81
2022/10/15 07:05:23;;;;;;;1.90;1.00;;;;;;;13.49;100.00;95807.09;5036701;28;20045;-81
2022/10/15 07:07:54;;;;;;;2.40;0.85;;;;;;;13.49;100.00;95812.56;5039371;28;20051;-81
2022/10/15 07:10:21;;;;;;;1.27;1.00;;;;;;;13.50;100.00;95810.59;5038733;28;20456;-82
2022/10/15 07:12:48;;;;;;;0.60;0.50;;;;;;;13.51;100.00;95814.94;5039691;28;20116;-81
2022/10/15 07:15:15;;;;;;;2.45;0.60;;;;;;;13.52;100.00;95824.72;5037688;28;20045;-81
2022/10/15 07:17:46;;;;;;;1.50;0.77;;;;;;;13.54;100.00;95819.72;5037599;28;20107;-81
2022/10/15 07:20:13;;;;;;;2.05;0.70;;;;;;;13.54;100.00;95825.19;5021762;28;20049;-81
2022/10/15 07:22:40;;;;;;;1.10;0.70;;;;;;;13.62;100.00;95832.41;5041054;28;20046;-81
2022/10/15 07:25:09;;;;;;;2.55;0.70;;;;;;;13.56;100.00;95834.63;5044071;28;20073;-81
2022/10/15 07:27:37;;;;;;;2.75;0.82;;;;;;;13.58;100.00;95842.50;5042150;28;20488;-81
2022/10/15 07:30:05;;;;;;;0.90;0.80;;;;;;;13.60;100.00;95842.94;5043806;28;20113;-81
2022/10/15 07:32:32;;;;;;;3.13;0.80;;;;;;;13.63;100.00;95836.78;5044825;28;20105;-82
2022/10/15 07:34:59;;;;;;;0.60;0.40;;;;;;;13.72;100.00;95848.34;5046562;28;20065;-81
2022/10/15 07:37:25;;;;;;;0.80;0.57;;;;;;;13.76;100.00;95842.97;5044465;28;20097;-80
2022/10/15 07:39:54;;;;;;;0.93;0.57;;;;;;;13.74;100.00;95839.78;5052119;28;20032;-82
2022/10/15 07:42:22;;;;;;;1.13;0.80;;;;;;;13.72;100.00;95845.59;5052651;28;20099;-81
2022/10/15 07:44:49;;;;;;;0.40;0.40;;;;;;;13.78;100.00;95849.69;5050564;28;20069;-81
2022/10/15 07:47:16;;;;;;;2.15;0.40;;;;;;;13.83;100.00;95854.91;5044987;28;20103;-81
2022/10/15 07:49:43;;;;;;;1.15;0.82;;;;;;;13.86;100.00;95849.88;5045277;28;20052;-82
2022/10/15 07:52:10;;;;;;;1.55;0.70;;;;;;;13.90;100.00;95858.97;5032464;22;20081;-80
2022/10/15 07:54:37;;;;;;;0.55;0.50;;;;;;;13.92;100.00;95856.66;5029010;22;20105;-83
2022/10/15 07:57:05;;;;;;;1.60;0.60;;;;;;;13.94;100.00;95859.84;5337326;23;20136;-81
2022/10/15 07:59:34;;;;;;;0.95;0.50;;;;;;;13.98;100.00;95866.22;5094917;23;20025;-81
2022/10/15 08:04:53;;;;;;;0.88;0.40;;;;;;;14.08;100.00;95882.13;5022566;28;20033;-81
2022/10/15 08:07:20;;;;;;;2.33;0.55;;;;;;;14.15;100.00;95874.09;5452133;22;20045;-83
2022/10/15 08:09:47;;;;;;;1.63;0.63;;;;;;;14.15;100.00;95882.31;5037530;28;20036;-83
2022/10/15 08:12:14;;;;;;;2.55;0.40;;;;;;;14.15;100.00;95876.84;5036929;28;20046;-78
2022/10/15 08:14:42;;;;;;;2.28;0.50;;;;;;;14.22;100.00;95874.28;5038689;28;20053;-83
2022/10/15 08:17:10;;;;;;;1.63;0.50;;;;;;;14.32;100.00;95879.22;5037681;28;20057;-81
2022/10/15 08:19:36;;;;;;;0.65;0.40;;;;;;;14.31;100.00;95883.13;5030975;22;20038;-81
2022/10/15 08:22:06;;;;;;;2.95;0.47;;;;;;;14.34;100.00;95882.38;5005024;23;20065;-80
2022/10/15 08:24:33;;;;;;;1.67;0.40;;;;;;;14.42;100.00;95896.28;5019806;28;20025;-81
2022/10/15 08:27:06;;;;;;;1.45;0.50;;;;;;;14.45;100.00;95895.56;5007960;28;20052;-82
2022/10/15 08:29:33;;;;;;;0.75;0.38;;;;;;;14.48;100.00;95898.44;5024523;23;20052;-81
2022/10/15 08:32:01;;;;;;;2.70;0.60;;;;;;;14.49;100.00;95904.69;5013347;28;20046;-80
2022/10/15 08:34:28;;;;;;;0.60;0.50;;;;;;;14.52;100.00;95899.31;5016039;28;20042;-80
2022/10/15 08:36:55;;;;;;;0.70;0.35;;;;;;;14.52;100.00;95906.75;5009808;28;20505;-82
2022/10/15 08:39:22;;;;;;;1.38;0.45;;;;;;;14.58;100.00;95916.28;5005314;28;20054;-81
2022/10/15 08:41:53;;;;;;;0.40;0.40;;;;;;;14.60;100.00;95924.94;5007967;28;20050;-82
2022/10/15 08:44:25;;;;;;;1.80;0.40;;;;;;;14.55;100.00;95925.19;5007707;28;20030;-80
2022/10/15 08:46:59;;;;;;;1.88;0.47;;;;;;;14.55;100.00;95934.22;4993126;28;20050;-81
2022/10/15 08:49:41;;;;;;;2.60;0.40;;;;;;;14.58;100.00;95933.50;5002275;28;20065;-81
2022/10/15 08:52:17;;;;;;;0.90;0.40;;;;;;;14.67;100.00;95938.81;5001776;28;20519;-80
2022/10/15 08:54:43;;;;;;;2.63;0.52;;;;;;;14.65;100.00;95948.53;5004309;28;20390;-80
2022/10/15 08:57:19;;;;;;;2.67;0.63;;;;;;;14.71;100.00;95947.09;5002717;28;20050;-80
2022/10/15 08:59:54;;;;;;;0.68;0.40;;;;;;;14.74;100.00;95947.22;5001606;28;20134;-80
2022/10/15 09:02:26;;;;;;;3.15;0.40;;;;;;;14.72;100.00;95955.00;5002171;28;20073;-80
2022/10/15 09:05:01;;;;;;;2.20;0.45;;;;;;;14.76;100.00;95961.34;4998390;28;20125;-80
2022/10/15 09:07:35;;;;;;;1.13;0.30;;;;;;;14.77;100.00;95962.97;5014958;28;20571;-80
2022/10/15 09:10:13;;;;;;;1.90;0.50;;;;;;;14.74;100.00;95969.13;4996666;28;20057;-80
2022/10/15 09:12:48;;;;;;;1.48;0.60;;;;;;;14.88;100.00;95958.53;5004240;28;20583;-80
2022/10/15 09:15:19;;;;;;;0.40;0.40;;;;;;;14.82;100.00;95965.41;5014368;28;20050;-80
2022/10/15 09:17:48;;;;;;;1.23;0.50;;;;;;;14.92;100.00;95963.28;5019875;28;20050;-80
2022/10/15 09:20:18;;;;;;;0.43;0.30;;;;;;;14.94;100.00;95967.28;5001158;28;20057;-79
2022/10/15 09:22:49;;;;;;;0.55;0.40;;;;;;;15.02;100.00;95974.50;4999873;28;20042;-80
2022/10/15 09:25:17;;;;;;;0.50;0.40;;;;;;;14.96;100.00;95978.66;4998668;28;20055;-81
2022/10/15 09:27:46;;;;;;;0.45;0.30;;;;;;;15.02;100.00;95973.72;4997169;28;20046;-79
2022/10/15 09:30:25;;;;;;;0.20;0.20;;;;;;;14.86;100.00;95992.91;4996933;28;20057;-80
2022/10/15 09:32:58;;;;;;;2.00;0.20;;;;;;;14.80;100.00;95981.41;4999046;28;20129;-80
2022/10/15 09:35:29;;;;;;;1.67;0.40;;;;;;;14.94;100.00;95988.41;5003577;28;20513;-82
2022/10/15 09:38:06;;;;;;;1.15;0.43;;;;;;;14.97;100.00;95987.69;5000184;28;20065;-79
2022/10/15 09:40:52;;;;;;;2.50;0.32;;;;;;;15.10;100.00;95991.94;4998437;28;20120;-80
2022/10/15 09:43:26;;;;;;;0.57;0.50;;;;;;;15.14;97.07;95992.81;5000058;28;20046;-79
2022/10/15 09:45:53;;;;;;;1.73;0.20;;;;;;;15.12;95.80;95970.41;5000553;28;20074;-80
2022/10/15 09:48:21;;;;;;;0.20;0.20;;;;;;;15.20;95.80;95969.44;4996841;28;20042;-79
2022/10/15 09:50:56;;;;;;;0.95;0.20;;;;;;;15.29;93.64;95972.78;4996714;28;20046;-79
2022/10/15 09:53:33;;;;;;;1.02;0.40;;;;;;;15.34;93.46;95969.75;5002481;28;20054;-79
2022/10/15 09:56:04;;;;;;;0.20;0.20;;;;;;;15.40;90.90;95967.53;5001649;28;20046;-80
2022/10/15 09:58:38;;;;;;;0.68;0.40;;;;;;;15.50;87.62;95968.91;5003700;28;20106;-79
2022/10/15 10:01:06;;;;;;;0.82;0.25;;;;;;;15.61;87.33;95969.97;4999266;28;20050;-79
2022/10/15 10:03:35;;;;;;;0.70;0.20;;;;;;;15.59;86.40;95969.50;4997886;28;20046;-80
2022/10/15 10:06:15;;;;;;;0.13;0.13;;;;;;;15.63;83.33;95975.91;4999357;28;20674;-79
2022/10/15 10:08:50;;;;;;;0.17;0.17;;;;;;;15.63;82.69;95981.41;4995644;28;20034;-80
2022/10/15 10:11:18;;;;;;;0.22;0.20;;;;;;;15.77;83.65;95987.19;4995888;28;20069;-79
2022/10/15 10:13:49;;;;;;;1.63;0.20;;;;;;;15.58;83.00;95998.91;4998892;28;20039;-80
2022/10/15 10:16:18;;;;;;;0.60;0.30;;;;;;;15.74;85.50;95985.16;4995781;28;20056;-79
2022/10/15 10:19:03;;;;;;;0.68;0.30;;;;;;;15.75;83.82;95983.19;4996066;28;20049;-79
2022/10/15 10:21:33;;;;;;;0.82;0.28;;;;;;;15.80;84.69;95985.66;4995598;28;20062;-79
2022/10/15 10:24:19;;;;;;;0.70;0.20;;;;;;;15.99;84.88;95998.63;4996159;28;20054;-79
2022/10/15 10:26:46;;;;;;;0.60;0.20;;;;;;;16.01;84.43;95996.28;5002459;28;20046;-81
2022/10/15 10:29:18;;;;;;;0.50;0.30;;;;;;;15.95;85.69;95992.25;4997095;28;20073;-80
2022/10/15 10:31:45;;;;;;;1.77;0.40;;;;;;;16.02;87.03;95995.13;5000663;28;20490;-81
2022/10/15 10:34:16;;;;;;;0.40;0.40;;;;;;;16.24;86.82;96002.66;5000799;28;20042;-79
2022/10/15 10:36:51;;;;;;;0.75;0.47;;;;;;;16.26;86.11;95989.34;4998446;28;20042;-79
2022/10/15 10:39:25;;;;;;;1.67;0.32;;;;;;;16.48;85.84;95987.00;4998091;28;20130;-81
2022/10/15 10:41:54;;;;;;;0.70;0.20;;;;;;;16.61;86.41;95997.47;4995829;28;20042;-82
2022/10/15 10:44:26;;;;;;;0.20;0.20;;;;;;;16.40;85.26;95991.56;4993622;28;20046;-79
2022/10/15 10:47:08;;;;;;;1.05;0.55;;;;;;;16.55;85.96;96011.84;4998785;28;20460;-79
2022/10/15 10:49:36;;;;;;;1.70;0.35;;;;;;;16.41;86.47;96001.41;5012312;28;20056;-79
2022/10/15 10:52:05;;;;;;;1.55;0.40;;;;;;;16.29;86.51;96007.84;5022803;28;20047;-79
2022/10/15 10:54:33;;;;;;;1.25;0.40;;;;;;;16.44;87.04;96004.22;5022022;28;20050;-80
2022/10/15 10:57:01;;;;;;;2.65;0.50;;;;;;;16.66;87.33;95997.16;5018142;28;20583;-79
2022/10/15 10:59:32;;;;;;;1.25;0.30;;;;;;;16.60;84.19;95993.13;5012687;28;20132;-79
2022/10/15 11:01:59;;;;;;;0.82;0.40;;;;;;;16.71;84.92;95998.84;5031616;28;20060;-78
2022/10/15 11:04:29;;;;;;;1.10;0.60;;;;;;;16.69;82.97;95995.63;5018321;28;20489;-80
2022/10/15 11:07:03;;;;;;;1.08;0.40;;;;;;;16.94;83.65;95994.13;5010552;28;20133;-79
2022/10/15 11:09:51;;;;;;;2.15;0.50;;;;;;;16.82;81.18;95991.56;4997922;28;20042;-80
2022/10/15 11:12:43;;;;;;;1.23;0.30;;;;;;;16.98;82.09;95985.16;4996094;28;20047;-79
2022/10/15 11:15:28;;;;;;;0.52;0.50;;;;;;;17.09;80.33;95991.59;4964858;28;20054;-79
2022/10/15 11:18:14;;;;;;;1.67;0.50;;;;;;;17.12;81.69;95988.09;4995053;28;20443;-78
2022/10/15 11:21:01;;;;;;;0.77;0.45;;;;;;;17.07;80.44;95982.91;5009372;28;20382;-79
2022/10/15 11:23:41;;;;;;;2.38;0.65;;;;;;;17.09;80.89;95981.41;5003985;28;20046;-78
2022/10/15 11:26:23;;;;;;;0.75;0.47;;;;;;;17.17;80.85;95980.34;4992880;28;20058;-79
2022/10/15 11:28:59;;;;;;;3.85;0.77;;;;;;;17.15;81.75;95976.38;4996805;28;20053;-80
2022/10/15 11:31:33;;;;;;;2.15;0.57;;;;;;;17.16;82.06;95980.72;4996098;28;20109;-79
2022/10/15 11:34:17;;;;;;;3.10;0.43;;;;;;;17.35;82.11;95980.63;4996210;28;20042;-79
2022/10/15 11:37:04;;;;;;;2.05;0.60;;;;;;;17.39;80.27;95984.22;4996431;28;20038;-79
2022/10/15 11:39:46;;;;;;;1.70;0.60;;;;;;;17.60;80.60;95977.44;4995928;28;20044;-79
2022/10/15 11:42:18;;;;;;;0.80;0.50;;;;;;;17.66;81.20;95984.19;4996364;28;20576;-78
2022/10/15 11:45:03;;;;;;;1.17;0.50;;;;;;;17.61;78.40;95976.25;4996073;28;20129;-79
2022/10/15 11:47:47;;;;;;;1.63;0.60;;;;;;;17.79;73.91;95982.81;4996318;28;20044;-79